Time;durP1;ratioP1;P1;durP2;ratioP2;P2;SDS_P1;SDS_P2;PMS_P1;PMS_P2;Temp;Humidity;BMP_temperature;BMP_pressure;BME280_temperature;BME280_humidity;BME280_pressure;Samples;Min_cycle;Max_cycle;Signal;HPM_P1;HPM_P2
2023/08/03 00:00:24;;;;;;;3.63;1.10;;;17.00;99.90;;;;;;5080469;28;20426;-71
2023/08/03 00:02:51;;;;;;;2.07;0.97;;;17.10;99.90;;;;;;5091345;28;20278;-68
2023/08/03 00:05:19;;;;;;;1.83;1.30;;;17.00;99.90;;;;;;5089412;28;20271;-68
2023/08/03 00:07:48;;;;;;;3.23;1.40;;;17.10;99.90;;;;;;5072595;28;20434;-68
2023/08/03 00:10:15;;;;;;;1.90;1.00;;;17.00;99.90;;;;;;5083914;28;20427;-68
2023/08/03 00:12:42;;;;;;;3.40;1.23;;;17.00;99.90;;;;;;5084059;28;20422;-69
2023/08/03 00:15:09;;;;;;;2.83;2.00;;;17.00;99.90;;;;;;5083396;28;20434;-69
2023/08/03 00:17:35;;;;;;;3.20;1.30;;;17.00;99.90;;;;;;5084225;28;20474;-69
2023/08/03 00:20:03;;;;;;;1.80;1.03;;;16.90;99.90;;;;;;5083853;28;20540;-68
2023/08/03 00:22:29;;;;;;;3.63;1.33;;;16.90;99.90;;;;;;5083405;28;20931;-68
2023/08/03 00:24:54;;;;;;;1.30;1.10;;;16.90;99.90;;;;;;5062874;28;20423;-68
2023/08/03 00:27:20;;;;;;;1.87;1.00;;;16.80;99.90;;;;;;5082864;28;20238;-68
2023/08/03 00:29:45;;;;;;;1.70;1.27;;;16.80;99.90;;;;;;5084442;28;20230;-67
2023/08/03 00:32:11;;;;;;;2.10;1.17;;;16.70;99.90;;;;;;5083330;28;20184;-68
2023/08/03 00:34:37;;;;;;;3.40;1.40;;;16.70;99.90;;;;;;5084152;28;20177;-68
2023/08/03 00:37:03;;;;;;;3.80;1.27;;;16.70;99.90;;;;;;5083972;28;20208;-68
2023/08/03 00:39:29;;;;;;;2.73;0.90;;;16.70;99.90;;;;;;5083822;28;20214;-68
2023/08/03 00:41:54;;;;;;;1.43;1.33;;;16.70;99.90;;;;;;5083876;28;20479;-68
2023/08/03 00:44:20;;;;;;;3.40;1.40;;;16.60;99.90;;;;;;5083089;28;20191;-68
2023/08/03 00:46:46;;;;;;;2.77;1.17;;;16.60;99.90;;;;;;5083835;28;20250;-67
2023/08/03 00:49:11;;;;;;;2.00;1.10;;;16.60;99.90;;;;;;5064899;28;20202;-67
2023/08/03 00:51:37;;;;;;;2.63;1.17;;;16.60;99.90;;;;;;5083827;28;20180;-68
2023/08/03 00:54:07;;;;;;;2.87;1.30;;;16.70;99.90;;;;;;5081612;28;20172;-66
2023/08/03 00:56:34;;;;;;;2.50;1.17;;;16.70;99.90;;;;;;5063384;28;20225;-68
2023/08/03 00:59:00;;;;;;;1.23;1.13;;;16.70;99.90;;;;;;5063432;28;20428;-68
2023/08/03 01:01:26;;;;;;;1.33;1.00;;;16.60;99.90;;;;;;5062987;28;20450;-69
2023/08/03 01:03:54;;;;;;;3.13;1.20;;;16.60;99.90;;;;;;5063398;28;21211;-67
2023/08/03 01:06:20;;;;;;;1.60;1.10;;;16.70;99.90;;;;;;5062739;28;20180;-69
2023/08/03 01:08:46;;;;;;;1.40;0.90;;;16.70;99.90;;;;;;5063428;28;20411;-69
2023/08/03 01:11:12;;;;;;;2.83;1.17;;;16.70;99.90;;;;;;5062014;28;20420;-69
2023/08/03 01:13:37;;;;;;;1.63;1.53;;;16.70;99.90;;;;;;5045603;28;20177;-68
2023/08/03 01:16:03;;;;;;;1.77;0.93;;;16.70;99.90;;;;;;5062791;28;20470;-68
2023/08/03 01:18:29;;;;;;;1.00;0.90;;;16.70;99.90;;;;;;5063111;28;20904;-68
2023/08/03 01:20:55;;;;;;;1.70;1.30;;;16.70;99.90;;;;;;5063228;28;20180;-68
2023/08/03 01:23:21;;;;;;;3.53;1.10;;;16.70;99.90;;;;;;5062703;28;20217;-68
2023/08/03 01:25:47;;;;;;;4.17;1.20;;;16.70;99.90;;;;;;5062951;28;20420;-68
2023/08/03 01:28:13;;;;;;;2.53;1.20;;;16.70;99.90;;;;;;5062608;28;20187;-67
2023/08/03 01:30:38;;;;;;;1.20;1.10;;;16.60;99.90;;;;;;5063136;28;20235;-68
2023/08/03 01:33:04;;;;;;;2.63;1.33;;;16.60;99.90;;;;;;5082238;28;20233;-68
2023/08/03 01:35:30;;;;;;;5.17;1.20;;;16.60;99.90;;;;;;5083145;28;20208;-67
2023/08/03 01:37:56;;;;;;;1.20;1.10;;;16.60;99.90;;;;;;5083469;28;20188;-68
2023/08/03 01:40:21;;;;;;;1.60;1.00;;;16.50;99.90;;;;;;5082708;28;20184;-68
2023/08/03 01:42:47;;;;;;;2.97;0.93;;;16.50;99.90;;;;;;5083248;28;20233;-68
2023/08/03 01:45:13;;;;;;;2.27;1.13;;;16.50;99.90;;;;;;5082242;28;20230;-68
2023/08/03 01:47:38;;;;;;;1.20;0.80;;;16.50;99.90;;;;;;5083011;28;20198;-68
2023/08/03 01:50:04;;;;;;;2.30;1.30;;;16.40;99.90;;;;;;5082018;28;20172;-68
2023/08/03 01:52:30;;;;;;;4.37;1.00;;;16.50;99.90;;;;;;5082894;28;20188;-68
2023/08/03 01:54:56;;;;;;;4.53;1.03;;;16.50;99.90;;;;;;5073769;28;20450;-68
2023/08/03 01:57:21;;;;;;;3.43;1.37;;;16.50;99.90;;;;;;5062256;28;20209;-68
2023/08/03 01:59:47;;;;;;;1.70;1.30;;;16.40;99.90;;;;;;5063154;28;20608;-68
2023/08/03 02:02:13;;;;;;;2.50;1.30;;;16.50;99.90;;;;;;5062139;28;20177;-67
2023/08/03 02:04:39;;;;;;;3.33;1.77;;;16.50;99.90;;;;;;5062756;28;20214;-67
2023/08/03 02:07:10;;;;;;;2.10;1.30;;;16.50;99.90;;;;;;5044088;28;20427;-68
2023/08/03 02:09:36;;;;;;;2.53;1.40;;;16.50;99.90;;;;;;5062863;28;20226;-68
2023/08/03 02:12:02;;;;;;;1.83;1.30;;;16.50;99.90;;;;;;5062101;28;21173;-68
2023/08/03 02:14:28;;;;;;;3.53;1.50;;;16.40;99.90;;;;;;5062525;28;20181;-68
2023/08/03 02:16:53;;;;;;;3.60;1.83;;;16.50;99.90;;;;;;5062785;28;21239;-68
2023/08/03 02:19:19;;;;;;;5.27;1.83;;;16.50;99.90;;;;;;5062419;28;20189;-68
2023/08/03 02:21:45;;;;;;;3.33;1.67;;;16.50;99.90;;;;;;5064317;28;20207;-69
2023/08/03 02:24:12;;;;;;;2.93;1.60;;;16.40;99.90;;;;;;5078807;28;20216;-68
2023/08/03 02:26:37;;;;;;;3.90;1.70;;;16.40;99.90;;;;;;5086481;28;20195;-67
2023/08/03 02:29:03;;;;;;;5.87;2.00;;;16.40;99.90;;;;;;5067856;28;20418;-68
2023/08/03 02:31:29;;;;;;;6.07;2.23;;;16.50;99.90;;;;;;5079565;28;20292;-67
2023/08/03 02:33:54;;;;;;;4.83;1.90;;;16.40;99.90;;;;;;5066161;28;20311;-68
2023/08/03 02:36:20;;;;;;;2.53;1.80;;;16.40;99.90;;;;;;5065335;28;20212;-67
2023/08/03 02:38:46;;;;;;;2.63;1.37;;;16.40;99.90;;;;;;5066719;28;21014;-68
2023/08/03 02:41:11;;;;;;;3.53;1.80;;;16.40;99.90;;;;;;5065631;28;20635;-68
2023/08/03 02:43:37;;;;;;;3.60;2.10;;;16.40;99.90;;;;;;5066190;28;20180;-67
2023/08/03 02:46:03;;;;;;;2.10;1.63;;;16.40;99.90;;;;;;5065304;28;20260;-67
2023/08/03 02:48:28;;;;;;;5.03;1.90;;;16.40;99.90;;;;;;5067241;28;20212;-69
2023/08/03 02:50:54;;;;;;;3.37;1.67;;;16.40;99.90;;;;;;5067837;28;20184;-67
2023/08/03 02:53:19;;;;;;;6.10;2.10;;;16.40;99.90;;;;;;5069338;28;20256;-70
2023/08/03 02:55:45;;;;;;;3.27;2.07;;;16.30;99.90;;;;;;5088730;28;20289;-69
2023/08/03 02:58:11;;;;;;;3.67;1.87;;;16.30;99.90;;;;;;5092361;28;20637;-69
2023/08/03 03:00:36;;;;;;;2.60;1.87;;;16.30;99.90;;;;;;5087578;28;20783;-69
2023/08/03 03:03:02;;;;;;;2.83;1.70;;;16.40;99.90;;;;;;5086255;28;20730;-70
2023/08/03 03:05:28;;;;;;;6.53;2.57;;;16.40;99.90;;;;;;5085905;28;20176;-68
2023/08/03 03:07:53;;;;;;;2.97;1.70;;;16.30;99.90;;;;;;5067753;28;20181;-68
2023/08/03 03:10:19;;;;;;;5.07;1.67;;;16.30;99.90;;;;;;5085106;28;20622;-67
2023/08/03 03:12:45;;;;;;;4.93;1.60;;;16.30;99.90;;;;;;5085851;28;20271;-68
2023/08/03 03:15:10;;;;;;;5.17;1.60;;;16.30;99.90;;;;;;5084799;28;20172;-67
2023/08/03 03:17:36;;;;;;;3.40;1.53;;;16.30;99.90;;;;;;5085653;28;20208;-68
2023/08/03 03:20:03;;;;;;;3.57;2.00;;;16.40;99.90;;;;;;5067090;28;20177;-67
2023/08/03 03:22:29;;;;;;;7.47;2.40;;;16.30;99.90;;;;;;5085587;28;20176;-68
2023/08/03 03:24:54;;;;;;;3.67;1.97;;;16.40;99.90;;;;;;5085219;28;20422;-68
2023/08/03 03:27:20;;;;;;;5.00;1.77;;;16.40;99.90;;;;;;5085369;28;20299;-68
2023/08/03 03:29:46;;;;;;;4.40;1.77;;;16.40;99.90;;;;;;5085421;28;20177;-68
2023/08/03 03:32:11;;;;;;;5.00;2.23;;;16.50;99.90;;;;;;5072024;28;20188;-68
2023/08/03 03:34:37;;;;;;;4.27;1.80;;;16.40;99.90;;;;;;5064495;28;20177;-68
2023/08/03 03:37:03;;;;;;;2.80;1.87;;;16.50;99.90;;;;;;5064022;28;20201;-70
2023/08/03 03:39:29;;;;;;;7.17;1.77;;;16.50;99.90;;;;;;5065385;28;20260;-67
2023/08/03 03:41:55;;;;;;;3.20;1.90;;;16.40;99.90;;;;;;5046918;28;20230;-68
2023/08/03 03:44:20;;;;;;;1.80;1.60;;;16.40;99.90;;;;;;5064276;28;20419;-67
2023/08/03 03:46:46;;;;;;;3.60;1.90;;;16.40;99.90;;;;;;5064534;28;20177;-67
2023/08/03 03:49:11;;;;;;;7.27;2.13;;;16.40;99.90;;;;;;5064198;28;20207;-68
2023/08/03 03:51:37;;;;;;;1.90;1.43;;;16.30;99.90;;;;;;5046803;28;20408;-69
2023/08/03 03:54:03;;;;;;;3.37;2.00;;;16.30;99.90;;;;;;5065421;28;20192;-67
2023/08/03 03:56:28;;;;;;;2.63;1.80;;;16.30;99.90;;;;;;5084837;28;20420;-68
2023/08/03 03:58:54;;;;;;;8.50;2.70;;;16.40;99.90;;;;;;5084563;28;20180;-68
2023/08/03 04:01:20;;;;;;;7.40;1.87;;;16.30;99.90;;;;;;5084675;28;20179;-67
2023/08/03 04:03:45;;;;;;;4.33;1.47;;;16.40;99.90;;;;;;5084714;28;20187;-69
2023/08/03 04:06:11;;;;;;;2.40;1.37;;;16.30;99.90;;;;;;5083893;28;20627;-68
2023/08/03 04:08:37;;;;;;;1.97;1.40;;;16.40;99.90;;;;;;5084656;28;20180;-67
2023/08/03 04:11:02;;;;;;;6.43;1.50;;;16.40;99.90;;;;;;5083947;28;20179;-68
2023/08/03 04:13:28;;;;;;;1.30;1.10;;;16.40;99.90;;;;;;5084352;28;20328;-68
2023/08/03 04:15:54;;;;;;;1.60;1.30;;;16.40;99.90;;;;;;5083862;28;20489;-68
2023/08/03 04:18:20;;;;;;;2.37;1.60;;;16.40;99.90;;;;;;5084088;28;20177;-68
2023/08/03 04:20:45;;;;;;;2.10;1.30;;;16.40;99.90;;;;;;5084387;28;20844;-67
2023/08/03 04:23:11;;;;;;;2.80;1.53;;;16.50;99.90;;;;;;5083878;28;20172;-68
2023/08/03 04:25:36;;;;;;;3.10;1.73;;;16.40;99.90;;;;;;5084032;28;20192;-68
2023/08/03 04:28:02;;;;;;;4.87;1.57;;;16.40;99.90;;;;;;5065419;28;20198;-68
2023/08/03 04:30:28;;;;;;;2.77;1.60;;;16.40;99.90;;;;;;5084265;28;20234;-68
2023/08/03 04:32:54;;;;;;;1.93;1.37;;;16.40;99.90;;;;;;5083434;28;20176;-68
2023/08/03 04:35:20;;;;;;;2.60;1.37;;;16.40;99.90;;;;;;5083918;28;20417;-69
2023/08/03 04:37:45;;;;;;;4.80;1.57;;;16.50;99.90;;;;;;5084198;28;20286;-69
2023/08/03 04:40:11;;;;;;;3.10;1.57;;;16.50;99.90;;;;;;5083510;28;20928;-69
2023/08/03 04:42:37;;;;;;;1.57;1.20;;;16.50;99.90;;;;;;5083931;28;20176;-69
2023/08/03 04:45:03;;;;;;;3.47;1.53;;;16.60;99.90;;;;;;5079772;28;20184;-68
2023/08/03 04:47:28;;;;;;;3.13;1.57;;;16.50;99.90;;;;;;5079364;28;20201;-68
2023/08/03 04:49:54;;;;;;;3.10;1.30;;;16.60;99.90;;;;;;5075763;28;20442;-68
2023/08/03 04:52:21;;;;;;;2.53;1.23;;;16.60;99.90;;;;;;5077230;28;20188;-68
2023/08/03 04:54:47;;;;;;;2.27;1.43;;;16.60;99.90;;;;;;5074895;28;20180;-68
2023/08/03 04:57:13;;;;;;;2.43;1.47;;;16.60;99.90;;;;;;5080505;28;20968;-69
2023/08/03 04:59:39;;;;;;;2.07;1.40;;;16.60;99.90;;;;;;5072724;28;20184;-68
2023/08/03 05:02:05;;;;;;;2.10;1.03;;;16.60;99.90;;;;;;5079408;28;20434;-68
2023/08/03 05:04:30;;;;;;;2.80;1.40;;;16.70;99.90;;;;;;5072337;28;21010;-68
2023/08/03 05:06:56;;;;;;;3.33;1.53;;;16.70;99.90;;;;;;5068185;28;20181;-68
2023/08/03 05:09:22;;;;;;;2.13;1.43;;;16.60;99.90;;;;;;5063435;28;20184;-68
2023/08/03 05:11:47;;;;;;;2.20;1.40;;;16.70;99.90;;;;;;5063310;28;20287;-68
2023/08/03 05:14:13;;;;;;;3.53;1.47;;;16.70;99.90;;;;;;5062814;28;20177;-68
2023/08/03 05:16:38;;;;;;;1.97;1.20;;;16.70;99.90;;;;;;5063371;28;20753;-68
2023/08/03 05:19:04;;;;;;;2.30;1.50;;;16.70;99.90;;;;;;5044494;28;20185;-68
2023/08/03 05:21:30;;;;;;;2.43;1.67;;;16.70;99.90;;;;;;5063298;28;20181;-69
2023/08/03 05:23:55;;;;;;;3.63;1.23;;;16.60;99.90;;;;;;5062495;28;20203;-68
2023/08/03 05:26:21;;;;;;;1.63;1.23;;;16.60;99.90;;;;;;5063348;28;20212;-68
2023/08/03 05:28:47;;;;;;;3.40;2.03;;;16.70;99.90;;;;;;5045276;28;20189;-68
2023/08/03 05:31:12;;;;;;;1.33;1.23;;;16.70;99.90;;;;;;5066572;28;20199;-69
2023/08/03 05:33:38;;;;;;;1.97;1.47;;;16.60;99.90;;;;;;5083280;28;20264;-69
2023/08/03 05:36:04;;;;;;;1.53;1.10;;;16.60;99.90;;;;;;5082777;28;20203;-68
2023/08/03 05:38:30;;;;;;;1.97;1.20;;;16.60;99.90;;;;;;5083356;28;20262;-68
2023/08/03 05:40:56;;;;;;;6.83;1.40;;;16.50;99.90;;;;;;5064805;28;20510;-67
2023/08/03 05:43:27;;;;;;;2.13;1.60;;;16.60;99.90;;;;;;5065815;28;20203;-68
2023/08/03 05:46:00;;;;;;;2.93;1.30;;;16.60;99.90;;;;;;5065905;28;20748;-68
2023/08/03 05:48:30;;;;;;;1.40;1.30;;;16.70;99.90;;;;;;5073013;28;20439;-68
2023/08/03 05:50:57;;;;;;;1.80;1.40;;;16.60;99.90;;;;;;5071491;28;20427;-69
2023/08/03 05:53:23;;;;;;;1.40;1.13;;;16.70;99.90;;;;;;5065117;28;20451;-69
2023/08/03 05:55:49;;;;;;;1.90;1.30;;;16.70;99.90;;;;;;5080134;28;21019;-68
2023/08/03 05:58:17;;;;;;;1.77;1.40;;;16.70;99.90;;;;;;5086640;28;20180;-67
2023/08/03 06:00:47;;;;;;;1.23;0.93;;;16.70;99.90;;;;;;5087127;28;20539;-68
2023/08/03 06:03:14;;;;;;;1.73;1.10;;;16.70;99.90;;;;;;5068668;28;20924;-67
2023/08/03 06:05:49;;;;;;;6.70;1.60;;;16.70;99.90;;;;;;5086685;28;20418;-68
2023/08/03 06:08:22;;;;;;;1.33;1.10;;;16.60;99.90;;;;;;5086651;28;20480;-68
2023/08/03 06:10:53;;;;;;;2.90;1.27;;;16.60;99.90;;;;;;5086613;28;21218;-68
2023/08/03 06:13:24;;;;;;;1.57;1.03;;;16.60;99.90;;;;;;5087184;28;20520;-69
2023/08/03 06:15:50;;;;;;;2.30;1.17;;;16.60;99.90;;;;;;5086161;28;20446;-67
2023/08/03 06:18:17;;;;;;;1.87;1.30;;;16.60;99.90;;;;;;5076803;28;20507;-68
2023/08/03 06:20:52;;;;;;;1.27;0.97;;;16.70;99.90;;;;;;5086463;28;20644;-68
2023/08/03 06:23:23;;;;;;;1.40;0.90;;;16.70;99.90;;;;;;5068658;28;20457;-67
2023/08/03 06:25:50;;;;;;;1.77;1.20;;;16.70;99.90;;;;;;5085837;28;20558;-68
2023/08/03 06:28:18;;;;;;;2.50;1.20;;;16.70;99.90;;;;;;5086868;28;20406;-67
2023/08/03 06:30:46;;;;;;;2.03;1.10;;;16.80;99.90;;;;;;5076189;28;20439;-68
2023/08/03 06:33:17;;;;;;;1.10;1.00;;;16.70;99.90;;;;;;5073385;28;21005;-68
2023/08/03 06:35:44;;;;;;;2.70;1.10;;;16.70;99.90;;;;;;5074538;28;20436;-68
2023/08/03 06:38:12;;;;;;;2.27;1.20;;;16.70;99.90;;;;;;5075157;28;20419;-68
2023/08/03 06:40:42;;;;;;;3.30;1.33;;;16.60;99.90;;;;;;5057058;28;20434;-68
2023/08/03 06:43:12;;;;;;;1.20;1.00;;;16.60;99.90;;;;;;5073945;28;20496;-68
2023/08/03 06:45:38;;;;;;;2.20;0.83;;;16.60;99.90;;;;;;5080646;28;20439;-67
2023/08/03 06:48:04;;;;;;;1.20;1.10;;;16.50;99.90;;;;;;5076649;28;20459;-69
2023/08/03 06:50:31;;;;;;;2.70;1.10;;;16.50;99.90;;;;;;5082185;28;20434;-69
2023/08/03 06:52:58;;;;;;;1.90;1.40;;;16.40;99.90;;;;;;5072516;28;20801;-69
2023/08/03 06:55:23;;;;;;;1.43;1.07;;;16.40;99.90;;;;;;5057127;28;20459;-68
2023/08/03 06:57:49;;;;;;;3.53;1.37;;;16.20;99.90;;;;;;5069775;28;20551;-69
2023/08/03 07:00:16;;;;;;;1.67;1.37;;;16.20;99.90;;;;;;5065583;28;20234;-69
2023/08/03 07:02:43;;;;;;;1.40;1.30;;;16.20;99.90;;;;;;5054527;28;20423;-69
2023/08/03 07:05:08;;;;;;;2.37;1.30;;;16.30;99.90;;;;;;5079277;28;20430;-69
2023/08/03 07:07:35;;;;;;;1.30;1.20;;;16.30;99.90;;;;;;5077366;28;20493;-69
2023/08/03 07:10:01;;;;;;;1.80;1.20;;;16.20;99.90;;;;;;5083562;28;20478;-69
2023/08/03 07:12:27;;;;;;;1.90;1.20;;;16.30;99.90;;;;;;5085809;28;20173;-69
2023/08/03 07:14:54;;;;;;;3.03;1.50;;;16.20;99.90;;;;;;5084907;28;20176;-69
2023/08/03 07:17:20;;;;;;;1.50;1.20;;;16.30;99.90;;;;;;5077728;28;20588;-69
2023/08/03 07:19:50;;;;;;;2.17;1.20;;;16.30;99.90;;;;;;5085213;28;20819;-68
2023/08/03 07:22:20;;;;;;;3.73;1.37;;;16.30;99.90;;;;;;5085583;28;20309;-69
2023/08/03 07:24:45;;;;;;;2.07;1.10;;;16.20;99.90;;;;;;5084959;28;20423;-69
2023/08/03 07:27:11;;;;;;;1.40;1.30;;;16.20;99.90;;;;;;5085553;28;21223;-69
2023/08/03 07:29:37;;;;;;;1.77;1.13;;;16.20;99.90;;;;;;5085745;28;20846;-69
2023/08/03 07:32:03;;;;;;;1.40;1.30;;;16.20;99.90;;;;;;5073964;28;21564;-69
2023/08/03 07:34:29;;;;;;;2.50;1.30;;;16.20;99.90;;;;;;5065412;28;20176;-68
2023/08/03 07:36:56;;;;;;;1.93;1.20;;;16.20;99.90;;;;;;5064614;28;20524;-68
2023/08/03 07:39:22;;;;;;;1.37;1.27;;;16.20;99.90;;;;;;5065203;28;20424;-70
2023/08/03 07:41:48;;;;;;;1.57;0.90;;;16.10;99.90;;;;;;5064260;28;20469;-69
2023/08/03 07:44:15;;;;;;;1.20;1.10;;;16.20;99.90;;;;;;5064621;28;20192;-69
2023/08/03 07:46:41;;;;;;;1.10;1.00;;;16.20;99.90;;;;;;5046735;28;20902;-68
2023/08/03 07:49:07;;;;;;;0.70;0.70;;;16.30;99.90;;;;;;5064353;28;20427;-70
2023/08/03 07:51:33;;;;;;;2.67;1.73;;;16.30;99.90;;;;;;5065068;28;20952;-69
2023/08/03 07:53:58;;;;;;;3.60;1.30;;;16.30;99.90;;;;;;5065000;28;20248;-70
2023/08/03 07:56:24;;;;;;;5.63;1.40;;;16.30;99.90;;;;;;5084753;28;20204;-70
2023/08/03 07:58:51;;;;;;;1.53;1.43;;;16.40;99.90;;;;;;5084242;28;20178;-70
2023/08/03 08:01:17;;;;;;;1.20;1.10;;;16.40;99.90;;;;;;5084716;28;20245;-70
2023/08/03 08:03:43;;;;;;;2.33;1.30;;;16.40;99.90;;;;;;5084250;28;20445;-70
2023/08/03 08:06:09;;;;;;;1.90;1.50;;;16.40;99.90;;;;;;5084592;28;20418;-70
2023/08/03 08:08:35;;;;;;;1.77;1.23;;;16.40;99.90;;;;;;5084790;28;20414;-70
2023/08/03 08:11:01;;;;;;;7.13;1.97;;;16.40;99.90;;;;;;5065837;28;20177;-70
2023/08/03 08:13:27;;;;;;;3.37;1.70;;;16.40;99.90;;;;;;5084644;28;21134;-70
2023/08/03 08:16:07;;;;;;;1.83;1.73;;;16.50;99.90;;;;;;5083638;28;20452;-70
2023/08/03 08:18:34;;;;;;;2.17;1.63;;;16.50;99.90;;;;;;5084596;28;20418;-70
2023/08/03 08:21:02;;;;;;;2.73;1.73;;;16.60;99.90;;;;;;5065321;28;20419;-70
2023/08/03 08:23:29;;;;;;;2.63;1.90;;;16.70;99.90;;;;;;5084299;28;20427;-69
2023/08/03 08:25:55;;;;;;;2.17;1.73;;;16.70;99.90;;;;;;5083463;28;20516;-70
2023/08/03 08:28:20;;;;;;;2.40;1.70;;;16.70;99.90;;;;;;5084378;28;20888;-69
2023/08/03 08:30:46;;;;;;;3.00;1.80;;;16.80;99.90;;;;;;5083222;28;20414;-70
2023/08/03 08:33:16;;;;;;;2.90;2.60;;;16.80;99.90;;;;;;5064606;28;20239;-69
2023/08/03 08:35:42;;;;;;;3.50;2.00;;;16.90;99.90;;;;;;5065047;28;20469;-68
2023/08/03 08:38:12;;;;;;;3.40;2.10;;;16.90;99.90;;;;;;5065971;28;20414;-71
2023/08/03 08:40:40;;;;;;;2.30;1.60;;;17.00;99.90;;;;;;5053130;28;21071;-69
2023/08/03 08:43:06;;;;;;;3.00;1.60;;;17.10;99.90;;;;;;5071786;28;20424;-69
2023/08/03 08:45:37;;;;;;;3.83;2.07;;;17.10;99.90;;;;;;5065190;28;20427;-69
2023/08/03 08:48:03;;;;;;;4.70;1.73;;;17.10;99.90;;;;;;5063867;28;20427;-69
2023/08/03 08:50:29;;;;;;;3.80;2.27;;;17.10;99.90;;;;;;5063996;28;20431;-68
2023/08/03 08:52:56;;;;;;;1.93;1.80;;;17.10;99.90;;;;;;5063345;28;20510;-70
2023/08/03 08:55:30;;;;;;;4.30;1.97;;;17.20;99.90;;;;;;5076119;28;20435;-68
2023/08/03 08:57:57;;;;;;;2.80;1.90;;;17.20;99.90;;;;;;5083128;28;20466;-69
2023/08/03 09:00:25;;;;;;;4.27;2.17;;;17.20;99.90;;;;;;5083496;28;20632;-68
2023/08/03 09:03:00;;;;;;;3.37;1.97;;;17.20;99.90;;;;;;5082696;28;20905;-68
2023/08/03 09:05:27;;;;;;;2.00;1.80;;;17.20;99.90;;;;;;5083236;28;20414;-68
2023/08/03 09:08:01;;;;;;;4.27;2.10;;;17.20;99.90;;;;;;5082615;28;20414;-68
2023/08/03 09:10:27;;;;;;;2.17;1.70;;;17.30;99.90;;;;;;5083462;28;20424;-68
2023/08/03 09:12:54;;;;;;;2.57;1.73;;;17.20;99.90;;;;;;5082684;28;20475;-69
2023/08/03 09:15:40;;;;;;;2.70;2.07;;;17.20;99.90;;;;;;5083281;28;20430;-69
2023/08/03 09:18:06;;;;;;;1.73;1.60;;;17.20;99.90;;;;;;5083115;28;20495;-69
2023/08/03 09:20:32;;;;;;;2.57;1.70;;;17.30;99.90;;;;;;5083104;28;21182;-70
2023/08/03 09:22:59;;;;;;;2.10;1.60;;;17.40;99.90;;;;;;5082683;28;20432;-70
2023/08/03 09:25:25;;;;;;;1.90;1.80;;;17.50;99.90;;;;;;5083047;28;20426;-68
2023/08/03 09:27:54;;;;;;;2.10;1.63;;;17.70;99.90;;;;;;5064374;28;20433;-69
2023/08/03 09:30:20;;;;;;;3.63;2.00;;;17.70;99.90;;;;;;5083488;28;20188;-69
2023/08/03 09:32:47;;;;;;;2.63;1.40;;;17.80;99.90;;;;;;5064767;28;20431;-69
2023/08/03 09:35:16;;;;;;;4.90;1.73;;;17.80;99.90;;;;;;5063191;28;20415;-69
2023/08/03 09:37:42;;;;;;;2.67;1.57;;;17.80;99.90;;;;;;5062279;28;20466;-69
2023/08/03 09:40:09;;;;;;;2.80;1.83;;;17.80;99.90;;;;;;5062991;28;20751;-69
2023/08/03 09:42:39;;;;;;;3.10;2.00;;;17.80;99.90;;;;;;5063031;28;20177;-69
2023/08/03 09:45:06;;;;;;;3.97;1.73;;;17.80;99.90;;;;;;5063011;28;21267;-69
2023/08/03 09:47:34;;;;;;;1.40;1.30;;;17.90;99.90;;;;;;5061503;28;20536;-69
2023/08/03 09:50:01;;;;;;;2.60;1.70;;;17.90;99.90;;;;;;5062721;28;20658;-69
2023/08/03 09:52:28;;;;;;;2.20;1.33;;;17.90;99.90;;;;;;5063157;28;20439;-69
2023/08/03 09:55:20;;;;;;;2.23;1.57;;;17.90;99.90;;;;;;5070784;28;20419;-69
2023/08/03 09:58:06;;;;;;;2.00;1.43;;;17.90;99.90;;;;;;5082325;28;20548;-69
2023/08/03 10:00:33;;;;;;;2.53;1.50;;;17.80;99.90;;;;;;5083081;28;20500;-69
2023/08/03 10:03:15;;;;;;;2.93;1.47;;;17.80;99.90;;;;;;5082497;28;21128;-69
2023/08/03 10:05:49;;;;;;;2.07;1.67;;;17.80;99.90;;;;;;5082198;28;20422;-69
2023/08/03 10:08:27;;;;;;;5.10;1.90;;;17.70;99.90;;;;;;5083047;28;20410;-69
2023/08/03 10:10:59;;;;;;;3.03;2.43;;;17.70;99.90;;;;;;5082374;28;20406;-69
2023/08/03 10:13:27;;;;;;;2.37;1.80;;;17.70;99.90;;;;;;5083051;28;20425;-69
2023/08/03 10:15:54;;;;;;;2.20;2.00;;;17.70;99.90;;;;;;5081929;28;20437;-69
2023/08/03 10:18:20;;;;;;;1.90;1.80;;;17.70;99.90;;;;;;5082859;28;20422;-69
2023/08/03 10:20:47;;;;;;;3.30;2.37;;;17.70;99.90;;;;;;5081941;28;20422;-69
2023/08/03 10:23:15;;;;;;;3.27;2.60;;;17.70;99.90;;;;;;5082732;28;20430;-69
2023/08/03 10:25:52;;;;;;;2.23;1.90;;;17.80;99.90;;;;;;5081954;28;20429;-69
2023/08/03 10:28:18;;;;;;;2.37;1.60;;;17.80;99.90;;;;;;5082884;28;20776;-69
2023/08/03 10:31:14;;;;;;;2.80;2.17;;;17.80;99.90;;;;;;5082048;28;20418;-69
2023/08/03 10:33:49;;;;;;;3.40;2.23;;;17.90;99.90;;;;;;5061929;28;20415;-69
2023/08/03 10:36:35;;;;;;;4.10;2.17;;;17.90;99.90;;;;;;5062507;28;20466;-69
2023/08/03 10:39:09;;;;;;;2.00;1.80;;;17.90;99.90;;;;;;5062418;28;20429;-69
2023/08/03 10:41:45;;;;;;;2.50;2.03;;;17.90;99.90;;;;;;5062397;28;20546;-69
2023/08/03 10:44:14;;;;;;;3.70;2.07;;;17.90;99.90;;;;;;5079689;28;20473;-69
2023/08/03 10:46:49;;;;;;;4.00;2.23;;;17.80;99.90;;;;;;5080823;28;20447;-69
2023/08/03 10:49:20;;;;;;;3.97;2.40;;;17.80;99.90;;;;;;5067482;28;20549;-69
2023/08/03 10:51:54;;;;;;;3.40;2.43;;;17.80;99.90;;;;;;5055786;28;20861;-69
2023/08/03 10:54:27;;;;;;;2.77;2.20;;;17.80;99.90;;;;;;5081321;28;20446;-69
2023/08/03 10:57:10;;;;;;;3.27;2.00;;;17.80;99.90;;;;;;5083880;28;20466;-69
2023/08/03 10:59:39;;;;;;;2.23;1.80;;;17.90;99.90;;;;;;5076758;28;20559;-69
2023/08/03 11:02:21;;;;;;;3.67;1.97;;;17.90;99.90;;;;;;5085310;28;20515;-69
2023/08/03 11:04:52;;;;;;;2.47;2.27;;;18.00;99.90;;;;;;5084747;28;20427;-69
2023/08/03 11:07:24;;;;;;;6.47;2.40;;;17.90;99.90;;;;;;5085283;28;20423;-69
2023/08/03 11:09:54;;;;;;;3.20;2.10;;;17.90;99.90;;;;;;5066762;28;20426;-69
2023/08/03 11:12:22;;;;;;;2.10;1.87;;;17.90;99.90;;;;;;5085179;28;20822;-69
2023/08/03 11:14:50;;;;;;;2.10;1.77;;;17.90;99.90;;;;;;5084206;28;20500;-69
2023/08/03 11:17:23;;;;;;;3.47;1.87;;;17.80;99.90;;;;;;5078786;28;20462;-69
2023/08/03 11:19:49;;;;;;;2.13;1.93;;;17.90;99.90;;;;;;5071458;28;20430;-69
2023/08/03 11:22:14;;;;;;;3.30;2.00;;;17.80;99.90;;;;;;5085038;28;21074;-69
2023/08/03 11:24:42;;;;;;;6.03;2.33;;;17.80;99.90;;;;;;5084196;28;20513;-69
2023/08/03 11:27:09;;;;;;;3.00;2.30;;;17.80;99.90;;;;;;5086326;28;20207;-69
2023/08/03 11:29:36;;;;;;;1.80;1.70;;;17.80;99.90;;;;;;5086672;28;20617;-71
2023/08/03 11:32:04;;;;;;;3.50;1.97;;;17.80;99.90;;;;;;5076116;28;20494;-70
2023/08/03 11:34:30;;;;;;;2.47;2.27;;;17.90;99.90;;;;;;5075788;28;20433;-70
2023/08/03 11:36:56;;;;;;;5.40;2.40;;;17.90;99.90;;;;;;5087054;28;20470;-69
2023/08/03 11:39:22;;;;;;;2.60;2.10;;;17.90;99.90;;;;;;5085628;28;20245;-70
2023/08/03 11:41:49;;;;;;;2.60;2.27;;;17.90;99.90;;;;;;5084784;28;20949;-69
2023/08/03 11:44:19;;;;;;;4.80;2.10;;;17.90;99.90;;;;;;5071364;28;20426;-69
2023/08/03 11:46:46;;;;;;;2.50;2.07;;;17.90;99.90;;;;;;5084024;28;20427;-69
2023/08/03 11:49:13;;;;;;;3.20;2.37;;;17.90;99.90;;;;;;5084657;28;20803;-69
2023/08/03 11:51:38;;;;;;;4.10;2.80;;;17.90;99.90;;;;;;5084042;28;20460;-69
2023/08/03 11:54:12;;;;;;;4.77;2.90;;;17.90;99.90;;;;;;5083817;28;20537;-69
2023/08/03 11:56:39;;;;;;;3.33;3.03;;;17.90;99.90;;;;;;5083617;28;20329;-69
2023/08/03 11:59:08;;;;;;;6.07;2.90;;;18.00;99.90;;;;;;5084239;28;20422;-69
2023/08/03 12:01:48;;;;;;;3.03;2.83;;;18.00;99.90;;;;;;5083738;28;20419;-69
2023/08/03 12:04:15;;;;;;;3.47;2.70;;;18.00;99.90;;;;;;5055874;28;20428;-69
2023/08/03 12:06:45;;;;;;;4.20;3.20;;;18.10;99.90;;;;;;5081519;28;20519;-69
2023/08/03 12:09:20;;;;;;;6.23;3.27;;;18.10;99.90;;;;;;5084319;28;20424;-69
2023/08/03 12:11:46;;;;;;;3.27;2.50;;;18.20;99.90;;;;;;5083576;28;20426;-69
2023/08/03 12:14:11;;;;;;;2.30;2.10;;;18.20;99.90;;;;;;5083984;28;20422;-69
2023/08/03 12:16:38;;;;;;;2.80;2.20;;;18.30;99.90;;;;;;5077727;28;20574;-69
2023/08/03 12:19:08;;;;;;;5.47;2.13;;;18.30;99.90;;;;;;5076938;28;20191;-69
2023/08/03 12:21:37;;;;;;;4.37;2.50;;;18.30;99.90;;;;;;5069758;28;20769;-69
2023/08/03 12:24:04;;;;;;;4.53;1.90;;;18.40;99.90;;;;;;5083536;28;20422;-69
2023/08/03 12:26:30;;;;;;;2.77;2.20;;;18.50;99.90;;;;;;5083447;28;20435;-69
2023/08/03 12:28:56;;;;;;;2.87;2.00;;;18.50;99.90;;;;;;5083804;28;20422;-69
2023/08/03 12:31:23;;;;;;;2.57;1.80;;;18.60;99.90;;;;;;5083808;28;20292;-69
2023/08/03 12:33:49;;;;;;;2.60;2.20;;;18.60;99.90;;;;;;5083244;28;20435;-68
2023/08/03 12:36:15;;;;;;;4.30;2.10;;;18.70;99.90;;;;;;5083603;28;20508;-68
2023/08/03 12:38:41;;;;;;;2.40;2.20;;;18.70;99.90;;;;;;5059563;28;20181;-68
2023/08/03 12:41:06;;;;;;;2.93;2.40;;;18.60;99.90;;;;;;5083573;28;20476;-69
2023/08/03 12:43:32;;;;;;;2.87;2.60;;;18.70;99.90;;;;;;5078024;28;20189;-69
2023/08/03 12:45:59;;;;;;;3.73;2.70;;;18.60;99.90;;;;;;5081918;28;20192;-69
2023/08/03 12:48:24;;;;;;;3.07;2.77;;;18.70;99.90;;;;;;5053849;28;20953;-69